AFR27HE LFPO-LFKJ
Flight info
| Callsign | AFR27HE |
|---|---|
| Flight time | 1h 17m |
| Altitude | 35000 |
| Route | LATRA DCT LAMUT DCT UTUVA DCT TITVA DCT NOQAS DCT OTROT DCT RETNO DCT KOLON DCT OMARD M623 VAREK |
| Aircraft | A320/M-SDE3FGHIRWY/LB1 |
Departure
| Time | 2026-05-04 01:25 |
|---|---|
| Airport | Paris-Orly Airport (LFPO) |
Arrival
| Time | 2026-05-04 02:43 |
|---|---|
| Airport | Ajaccio Napoléon Bonaparte airport (LFKJ) |
| Time | Latitude | Longitude | Altitude | Speed | Heading |
|---|---|---|---|---|---|
| 2026-05-04 00:58 | 48.72630 | 2.35944 | 299 ft | 0 kts | 0° |
| 2026-05-04 01:16 | 48.72623 | 2.35944 | 294 ft | 4 kts | 0° |
| 2026-05-04 01:16 | 48.72596 | 2.35943 | 295 ft | 4 kts | 0° |
| 2026-05-04 01:16 | 48.72575 | 2.35943 | 297 ft | 4 kts | 2° |
| 2026-05-04 01:17 | 48.72548 | 2.35937 | 297 ft | 4 kts | 13° |
| 2026-05-04 01:17 | 48.72527 | 2.35930 | 297 ft | 4 kts | 13° |
| 2026-05-04 01:17 | 48.72502 | 2.35921 | 295 ft | 3 kts | 13° |
| 2026-05-04 01:17 | 48.72499 | 2.35920 | 295 ft | 0 kts | 13° |
| 2026-05-04 01:21 | 48.72502 | 2.35913 | 294 ft | 2 kts | 318° |
| 2026-05-04 01:21 | 48.72488 | 2.35856 | 296 ft | 8 kts | 258° |
| 2026-05-04 01:21 | 48.72478 | 2.35762 | 294 ft | 9 kts | 267° |
| 2026-05-04 01:21 | 48.72542 | 2.35691 | 296 ft | 18 kts | 343° |
| 2026-05-04 01:22 | 48.72633 | 2.35652 | 298 ft | 21 kts | 345° |
| 2026-05-04 01:22 | 48.72825 | 2.35573 | 297 ft | 22 kts | 345° |
| 2026-05-04 01:22 | 48.72927 | 2.35530 | 297 ft | 23 kts | 345° |
| 2026-05-04 01:22 | 48.73082 | 2.35609 | 298 ft | 15 kts | 338° |
| 2026-05-04 01:23 | 48.73178 | 2.35618 | 297 ft | 16 kts | 41° |
| 2026-05-04 01:23 | 48.73247 | 2.35791 | 294 ft | 20 kts | 62° |
| 2026-05-04 01:23 | 48.73317 | 2.35991 | 292 ft | 23 kts | 63° |
| 2026-05-04 01:23 | 48.73444 | 2.36102 | 295 ft | 23 kts | 353° |
| 2026-05-04 01:24 | 48.73504 | 2.35949 | 297 ft | 8 kts | 241° |
| 2026-05-04 01:24 | 48.73492 | 2.35922 | 295 ft | 12 kts | 238° |
| 2026-05-04 01:24 | 48.73327 | 2.35464 | 293 ft | 85 kts | 242° |
| 2026-05-04 01:24 | 48.73102 | 2.34809 | 295 ft | 125 kts | 242° |
| 2026-05-04 01:25 | 48.72416 | 2.32863 | 393 ft | 176 kts | 242° |
| 2026-05-04 01:25 | 48.72057 | 2.31817 | 967 ft | 164 kts | 242° |
| 2026-05-04 01:25 | 48.71282 | 2.29833 | 1751 ft | 175 kts | 237° |
| 2026-05-04 01:25 | 48.70813 | 2.28747 | 1937 ft | 190 kts | 237° |
| 2026-05-04 01:26 | 48.70047 | 2.27000 | 2179 ft | 214 kts | 236° |
| 2026-05-04 01:26 | 48.69177 | 2.25012 | 2535 ft | 237 kts | 236° |
| 2026-05-04 01:26 | 48.68239 | 2.22856 | 3122 ft | 250 kts | 236° |
| 2026-05-04 01:26 | 48.67281 | 2.20635 | 3938 ft | 254 kts | 236° |
| 2026-05-04 01:27 | 48.66038 | 2.18764 | 4758 ft | 258 kts | 207° |
| 2026-05-04 01:27 | 48.64279 | 2.18277 | 5545 ft | 264 kts | 173° |
| 2026-05-04 01:27 | 48.62529 | 2.19175 | 6368 ft | 270 kts | 156° |
| 2026-05-04 01:27 | 48.60869 | 2.20542 | 7149 ft | 273 kts | 152° |
| 2026-05-04 01:28 | 48.59236 | 2.22049 | 7924 ft | 276 kts | 152° |
| 2026-05-04 01:28 | 48.57489 | 2.23269 | 8694 ft | 277 kts | 161° |
| 2026-05-04 01:28 | 48.55690 | 2.24325 | 9483 ft | 280 kts | 161° |
| 2026-05-04 01:28 | 48.53859 | 2.25388 | 10192 ft | 285 kts | 161° |
| 2026-05-04 01:29 | 48.51928 | 2.26500 | 10394 ft | 308 kts | 161° |
| 2026-05-04 01:29 | 48.49848 | 2.27697 | 10560 ft | 331 kts | 161° |
| 2026-05-04 01:29 | 48.47639 | 2.28974 | 10874 ft | 346 kts | 161° |
| 2026-05-04 01:29 | 48.45371 | 2.30292 | 11470 ft | 351 kts | 161° |
| 2026-05-04 01:30 | 48.43100 | 2.31616 | 12129 ft | 355 kts | 161° |
| 2026-05-04 01:30 | 48.40764 | 2.32975 | 12800 ft | 358 kts | 161° |
| 2026-05-04 01:30 | 48.38422 | 2.34332 | 13424 ft | 362 kts | 161° |
| 2026-05-04 01:30 | 48.36063 | 2.35694 | 14024 ft | 366 kts | 161° |
| 2026-05-04 01:31 | 48.33674 | 2.37074 | 14600 ft | 369 kts | 161° |
| 2026-05-04 01:31 | 48.31269 | 2.38465 | 15184 ft | 372 kts | 162° |
| 2026-05-04 01:31 | 48.28846 | 2.39867 | 15765 ft | 374 kts | 162° |
| 2026-05-04 01:31 | 48.26410 | 2.41276 | 16336 ft | 377 kts | 162° |
| 2026-05-04 01:32 | 48.23951 | 2.42695 | 16911 ft | 380 kts | 162° |
| 2026-05-04 01:32 | 48.21474 | 2.44123 | 17489 ft | 382 kts | 163° |
| 2026-05-04 01:32 | 48.18982 | 2.45560 | 18061 ft | 385 kts | 162° |
| 2026-05-04 01:32 | 48.16507 | 2.46985 | 18630 ft | 386 kts | 162° |
| 2026-05-04 01:33 | 48.14002 | 2.48426 | 19171 ft | 387 kts | 162° |
| 2026-05-04 01:33 | 48.11486 | 2.49865 | 19705 ft | 388 kts | 162° |
| 2026-05-04 01:33 | 48.08948 | 2.51313 | 20226 ft | 389 kts | 162° |
| 2026-05-04 01:33 | 48.06399 | 2.52716 | 20737 ft | 390 kts | 163° |
| 2026-05-04 01:34 | 48.03827 | 2.54029 | 21239 ft | 391 kts | 164° |
| 2026-05-04 01:34 | 48.01236 | 2.55287 | 21686 ft | 393 kts | 164° |
| 2026-05-04 01:34 | 47.98624 | 2.56528 | 22100 ft | 395 kts | 164° |
| 2026-05-04 01:34 | 47.95995 | 2.57774 | 22478 ft | 399 kts | 164° |
| 2026-05-04 01:35 | 47.93333 | 2.59049 | 22881 ft | 402 kts | 163° |
| 2026-05-04 01:35 | 47.90672 | 2.60339 | 23295 ft | 404 kts | 163° |
| 2026-05-04 01:35 | 47.87996 | 2.61650 | 23667 ft | 406 kts | 163° |
| 2026-05-04 01:35 | 47.85306 | 2.62980 | 24008 ft | 407 kts | 163° |
| 2026-05-04 01:36 | 47.82613 | 2.64310 | 24347 ft | 409 kts | 163° |
| 2026-05-04 01:36 | 47.79907 | 2.65641 | 24676 ft | 410 kts | 164° |
| 2026-05-04 01:36 | 47.77194 | 2.66969 | 25005 ft | 411 kts | 164° |
| 2026-05-04 01:36 | 47.74473 | 2.68295 | 25304 ft | 413 kts | 165° |
| 2026-05-04 01:37 | 47.71733 | 2.69624 | 25611 ft | 414 kts | 165° |
| 2026-05-04 01:37 | 47.68987 | 2.70955 | 25922 ft | 416 kts | 165° |
| 2026-05-04 01:37 | 47.66237 | 2.72293 | 26224 ft | 417 kts | 165° |
| 2026-05-04 01:37 | 47.63476 | 2.73640 | 26526 ft | 419 kts | 165° |
| 2026-05-04 01:38 | 47.60695 | 2.74996 | 26820 ft | 420 kts | 165° |
| 2026-05-04 01:38 | 47.57950 | 2.76325 | 27101 ft | 421 kts | 165° |
| 2026-05-04 01:38 | 47.55160 | 2.77671 | 27365 ft | 422 kts | 166° |
| 2026-05-04 01:38 | 47.52320 | 2.79040 | 27613 ft | 424 kts | 166° |
| 2026-05-04 01:39 | 47.49511 | 2.80396 | 27871 ft | 425 kts | 166° |
| 2026-05-04 01:39 | 47.46730 | 2.81739 | 28101 ft | 427 kts | 166° |
| 2026-05-04 01:39 | 47.43921 | 2.83095 | 28334 ft | 428 kts | 166° |
| 2026-05-04 01:39 | 47.41084 | 2.84466 | 28597 ft | 428 kts | 166° |
| 2026-05-04 01:40 | 47.38257 | 2.85831 | 28931 ft | 427 kts | 166° |
| 2026-05-04 01:40 | 47.35434 | 2.87192 | 29271 ft | 426 kts | 166° |
| 2026-05-04 01:40 | 47.32616 | 2.88551 | 29543 ft | 426 kts | 166° |
| 2026-05-04 01:40 | 47.29796 | 2.89906 | 29821 ft | 426 kts | 167° |
| 2026-05-04 01:41 | 47.26976 | 2.91253 | 30091 ft | 427 kts | 167° |
| 2026-05-04 01:41 | 47.24156 | 2.92598 | 30343 ft | 426 kts | 167° |
| 2026-05-04 01:41 | 47.21339 | 2.93941 | 30611 ft | 425 kts | 167° |
| 2026-05-04 01:41 | 47.18524 | 2.95283 | 30893 ft | 424 kts | 167° |
| 2026-05-04 01:42 | 47.15716 | 2.96621 | 31174 ft | 423 kts | 167° |
| 2026-05-04 01:42 | 47.12904 | 2.97959 | 31459 ft | 422 kts | 167° |
| 2026-05-04 01:42 | 47.10109 | 2.99259 | 31731 ft | 421 kts | 168° |
| 2026-05-04 01:42 | 47.07305 | 3.00468 | 32019 ft | 419 kts | 169° |
| 2026-05-04 01:43 | 47.04499 | 3.01611 | 32306 ft | 418 kts | 169° |
| 2026-05-04 01:43 | 47.01699 | 3.02722 | 32587 ft | 416 kts | 170° |
| 2026-05-04 01:43 | 46.98907 | 3.03827 | 32864 ft | 415 kts | 170° |
| 2026-05-04 01:43 | 46.96122 | 3.04942 | 33137 ft | 415 kts | 169° |
| 2026-05-04 01:44 | 46.93340 | 3.06072 | 33416 ft | 414 kts | 169° |
| 2026-05-04 01:44 | 46.90571 | 3.07208 | 33697 ft | 413 kts | 169° |
| 2026-05-04 01:44 | 46.87814 | 3.08340 | 33978 ft | 411 kts | 169° |
| 2026-05-04 01:44 | 46.85098 | 3.09453 | 34209 ft | 411 kts | 169° |
| 2026-05-04 01:45 | 46.82304 | 3.10595 | 34409 ft | 411 kts | 169° |
| 2026-05-04 01:45 | 46.79586 | 3.11709 | 34586 ft | 412 kts | 169° |
| 2026-05-04 01:45 | 46.74059 | 3.13971 | 34935 ft | 413 kts | 169° |
| 2026-05-04 01:46 | 46.68490 | 3.16236 | 34999 ft | 417 kts | 169° |
| 2026-05-04 01:46 | 46.62889 | 3.18497 | 34996 ft | 418 kts | 169° |
| 2026-05-04 01:47 | 46.57311 | 3.20895 | 35006 ft | 422 kts | 161° |
| 2026-05-04 01:47 | 46.54765 | 3.23128 | 34979 ft | 434 kts | 145° |
| 2026-05-04 01:47 | 46.52544 | 3.26144 | 35008 ft | 440 kts | 142° |
| 2026-05-04 01:48 | 46.48144 | 3.32362 | 35001 ft | 442 kts | 142° |
| 2026-05-04 01:48 | 46.43752 | 3.38594 | 35002 ft | 442 kts | 142° |
| 2026-05-04 01:49 | 46.39338 | 3.44809 | 35002 ft | 442 kts | 142° |
| 2026-05-04 01:49 | 46.34925 | 3.50996 | 35004 ft | 442 kts | 142° |
| 2026-05-04 01:50 | 46.30504 | 3.57176 | 34993 ft | 442 kts | 142° |
| 2026-05-04 01:50 | 46.26080 | 3.63354 | 35000 ft | 442 kts | 142° |
| 2026-05-04 01:51 | 46.21649 | 3.69510 | 35000 ft | 442 kts | 142° |
| 2026-05-04 01:51 | 46.17216 | 3.75668 | 35001 ft | 442 kts | 142° |
| 2026-05-04 01:52 | 46.12813 | 3.81777 | 35003 ft | 442 kts | 142° |
| 2026-05-04 01:52 | 46.08377 | 3.87908 | 35000 ft | 442 kts | 142° |
| 2026-05-04 01:53 | 46.03946 | 3.94026 | 35007 ft | 441 kts | 142° |
| 2026-05-04 01:53 | 45.99513 | 4.00132 | 34998 ft | 441 kts | 142° |
| 2026-05-04 01:54 | 45.95076 | 4.06219 | 35009 ft | 440 kts | 142° |
| 2026-05-04 01:54 | 45.90650 | 4.12285 | 35015 ft | 440 kts | 142° |
| 2026-05-04 01:55 | 45.86213 | 4.18357 | 35005 ft | 440 kts | 142° |
| 2026-05-04 01:55 | 45.81778 | 4.24390 | 35015 ft | 440 kts | 142° |
| 2026-05-04 01:56 | 45.77340 | 4.30416 | 35016 ft | 440 kts | 142° |
| 2026-05-04 01:56 | 45.72901 | 4.36442 | 34987 ft | 440 kts | 142° |
| 2026-05-04 01:57 | 45.68458 | 4.42465 | 34992 ft | 440 kts | 142° |
| 2026-05-04 01:57 | 45.64015 | 4.48488 | 35004 ft | 440 kts | 141° |
| 2026-05-04 01:58 | 45.59564 | 4.54496 | 35007 ft | 440 kts | 142° |
| 2026-05-04 01:58 | 45.55100 | 4.60492 | 35008 ft | 440 kts | 142° |
| 2026-05-04 01:59 | 45.50665 | 4.66424 | 35010 ft | 440 kts | 142° |
| 2026-05-04 01:59 | 45.46206 | 4.72397 | 34991 ft | 440 kts | 142° |
| 2026-05-04 02:00 | 45.41745 | 4.78361 | 35006 ft | 439 kts | 142° |
| 2026-05-04 02:00 | 45.37285 | 4.84295 | 35011 ft | 439 kts | 142° |
| 2026-05-04 02:01 | 45.32821 | 4.90218 | 35023 ft | 439 kts | 142° |
| 2026-05-04 02:01 | 45.28365 | 4.96135 | 35024 ft | 439 kts | 142° |
| 2026-05-04 02:02 | 45.23905 | 5.02046 | 35003 ft | 438 kts | 142° |
| 2026-05-04 02:02 | 45.19449 | 5.07936 | 35019 ft | 438 kts | 142° |
| 2026-05-04 02:03 | 45.14981 | 5.13821 | 35027 ft | 438 kts | 142° |
| 2026-05-04 02:03 | 45.10509 | 5.19697 | 35031 ft | 438 kts | 142° |
| 2026-05-04 02:04 | 45.06070 | 5.25513 | 35031 ft | 438 kts | 142° |
| 2026-05-04 02:04 | 45.01597 | 5.31375 | 35035 ft | 438 kts | 142° |
| 2026-05-04 02:05 | 44.97130 | 5.37211 | 35028 ft | 438 kts | 142° |
| 2026-05-04 02:05 | 44.92647 | 5.43057 | 35029 ft | 438 kts | 142° |
| 2026-05-04 02:06 | 44.88158 | 5.48888 | 35027 ft | 439 kts | 143° |
| 2026-05-04 02:06 | 44.83657 | 5.54726 | 35023 ft | 439 kts | 142° |
| 2026-05-04 02:07 | 44.79181 | 5.60501 | 35029 ft | 439 kts | 142° |
| 2026-05-04 02:07 | 44.74671 | 5.66324 | 35032 ft | 439 kts | 142° |
| 2026-05-04 02:08 | 44.70166 | 5.72136 | 35018 ft | 440 kts | 142° |
| 2026-05-04 02:08 | 44.65650 | 5.77959 | 35031 ft | 440 kts | 142° |
| 2026-05-04 02:09 | 44.61897 | 5.82783 | 35045 ft | 440 kts | 142° |
| 2026-05-04 02:09 | 44.56627 | 5.89517 | 35060 ft | 440 kts | 142° |
| 2026-05-04 02:10 | 44.52098 | 5.95308 | 35057 ft | 440 kts | 142° |
| 2026-05-04 02:10 | 44.47560 | 6.01091 | 35062 ft | 441 kts | 143° |
| 2026-05-04 02:11 | 44.43039 | 6.06832 | 35067 ft | 441 kts | 142° |
| 2026-05-04 02:11 | 44.38493 | 6.12598 | 35057 ft | 441 kts | 142° |
| 2026-05-04 02:12 | 44.34677 | 6.17430 | 35054 ft | 442 kts | 142° |
| 2026-05-04 02:12 | 44.30141 | 6.23159 | 35061 ft | 443 kts | 142° |
| 2026-05-04 02:13 | 44.27084 | 6.27013 | 35063 ft | 443 kts | 142° |
| 2026-05-04 02:13 | 44.20277 | 6.35590 | 35062 ft | 444 kts | 142° |
| 2026-05-04 02:14 | 44.16460 | 6.40382 | 35073 ft | 444 kts | 142° |
| 2026-05-04 02:14 | 44.11113 | 6.47084 | 35062 ft | 445 kts | 142° |
| 2026-05-04 02:15 | 44.06505 | 6.52849 | 35069 ft | 445 kts | 142° |
| 2026-05-04 02:15 | 44.01889 | 6.58607 | 35072 ft | 446 kts | 142° |
| 2026-05-04 02:16 | 43.98043 | 6.63388 | 35075 ft | 446 kts | 142° |
| 2026-05-04 02:16 | 43.93383 | 6.69172 | 35082 ft | 447 kts | 142° |
| 2026-05-04 02:17 | 43.88773 | 6.74890 | 35089 ft | 447 kts | 142° |
| 2026-05-04 02:17 | 43.84124 | 6.80635 | 35096 ft | 447 kts | 142° |
| 2026-05-04 02:18 | 43.79477 | 6.86371 | 35084 ft | 448 kts | 142° |
| 2026-05-04 02:18 | 43.74815 | 6.92107 | 35090 ft | 448 kts | 142° |
| 2026-05-04 02:19 | 43.70104 | 6.97735 | 35094 ft | 447 kts | 145° |
| 2026-05-04 02:19 | 43.65156 | 7.02927 | 35097 ft | 446 kts | 147° |
| 2026-05-04 02:20 | 43.60147 | 7.07944 | 35076 ft | 448 kts | 147° |
| 2026-05-04 02:20 | 43.55117 | 7.13093 | 35077 ft | 451 kts | 147° |
| 2026-05-04 02:21 | 43.50105 | 7.18283 | 35069 ft | 452 kts | 150° |
| 2026-05-04 02:21 | 43.44568 | 7.22279 | 35077 ft | 449 kts | 157° |
| 2026-05-04 02:22 | 43.39000 | 7.26071 | 35064 ft | 450 kts | 157° |
| 2026-05-04 02:22 | 43.33378 | 7.29890 | 35071 ft | 451 kts | 157° |
| 2026-05-04 02:23 | 43.27784 | 7.33688 | 35079 ft | 452 kts | 157° |
| 2026-05-04 02:23 | 43.26829 | 7.34337 | 35078 ft | 452 kts | 157° |
| 2026-05-04 02:24 | 43.18947 | 7.39696 | 35086 ft | 452 kts | 157° |
| 2026-05-04 02:24 | 43.10734 | 7.45240 | 35091 ft | 453 kts | 157° |
| 2026-05-04 02:25 | 43.05074 | 7.49048 | 35095 ft | 454 kts | 157° |
| 2026-05-04 02:25 | 42.99406 | 7.52866 | 35077 ft | 454 kts | 157° |
| 2026-05-04 02:26 | 42.96600 | 7.54750 | 34594 ft | 455 kts | 157° |
| 2026-05-04 02:26 | 42.93754 | 7.56660 | 34112 ft | 455 kts | 157° |
| 2026-05-04 02:26 | 42.90914 | 7.58566 | 33571 ft | 455 kts | 157° |
| 2026-05-04 02:26 | 42.88075 | 7.60469 | 33023 ft | 454 kts | 157° |
| 2026-05-04 02:27 | 42.85242 | 7.62364 | 32492 ft | 453 kts | 157° |
| 2026-05-04 02:27 | 42.82406 | 7.64256 | 31976 ft | 453 kts | 157° |
| 2026-05-04 02:27 | 42.81451 | 7.64892 | 31799 ft | 451 kts | 157° |
| 2026-05-04 02:27 | 42.76805 | 7.67987 | 30964 ft | 446 kts | 157° |
| 2026-05-04 02:28 | 42.74004 | 7.69849 | 30465 ft | 448 kts | 157° |
| 2026-05-04 02:28 | 42.71206 | 7.71708 | 29945 ft | 449 kts | 157° |
| 2026-05-04 02:28 | 42.68393 | 7.73575 | 29399 ft | 450 kts | 156° |
| 2026-05-04 02:28 | 42.65577 | 7.75447 | 28828 ft | 454 kts | 156° |
| 2026-05-04 02:29 | 42.62731 | 7.77336 | 28180 ft | 454 kts | 156° |
| 2026-05-04 02:29 | 42.59909 | 7.79210 | 27405 ft | 451 kts | 156° |
| 2026-05-04 02:29 | 42.57097 | 7.81079 | 26667 ft | 447 kts | 156° |
| 2026-05-04 02:29 | 42.54311 | 7.82925 | 25944 ft | 444 kts | 156° |
| 2026-05-04 02:30 | 42.51543 | 7.84746 | 25244 ft | 441 kts | 156° |
| 2026-05-04 02:30 | 42.48797 | 7.86550 | 24551 ft | 438 kts | 156° |
| 2026-05-04 02:30 | 42.46067 | 7.88349 | 23886 ft | 435 kts | 156° |
| 2026-05-04 02:30 | 42.43353 | 7.90140 | 23143 ft | 433 kts | 156° |
| 2026-05-04 02:31 | 42.40649 | 7.91918 | 22371 ft | 431 kts | 156° |
| 2026-05-04 02:31 | 42.37952 | 7.93690 | 21616 ft | 430 kts | 156° |
| 2026-05-04 02:31 | 42.35266 | 7.95456 | 20893 ft | 429 kts | 156° |
| 2026-05-04 02:31 | 42.32661 | 7.97287 | 20163 ft | 429 kts | 149° |
| 2026-05-04 02:32 | 42.30271 | 7.99816 | 19454 ft | 431 kts | 137° |
| 2026-05-04 02:32 | 42.28285 | 8.02842 | 18774 ft | 431 kts | 131° |
| 2026-05-04 02:32 | 42.26394 | 8.05859 | 18024 ft | 421 kts | 132° |
| 2026-05-04 02:32 | 42.24527 | 8.08831 | 17249 ft | 407 kts | 132° |
| 2026-05-04 02:33 | 42.22714 | 8.11705 | 16482 ft | 397 kts | 132° |
| 2026-05-04 02:33 | 42.20939 | 8.14509 | 15734 ft | 389 kts | 132° |
| 2026-05-04 02:33 | 42.19192 | 8.17265 | 15001 ft | 382 kts | 132° |
| 2026-05-04 02:33 | 42.17463 | 8.19990 | 14297 ft | 384 kts | 132° |
| 2026-05-04 02:34 | 42.15764 | 8.22774 | 13629 ft | 381 kts | 130° |
| 2026-05-04 02:34 | 42.14214 | 8.25558 | 13072 ft | 362 kts | 128° |
| 2026-05-04 02:34 | 42.12797 | 8.28256 | 12541 ft | 345 kts | 127° |
| 2026-05-04 02:34 | 42.11465 | 8.30851 | 12000 ft | 330 kts | 127° |
| 2026-05-04 02:35 | 42.10184 | 8.33340 | 11479 ft | 317 kts | 127° |
| 2026-05-04 02:35 | 42.08940 | 8.35724 | 10952 ft | 305 kts | 128° |
| 2026-05-04 02:35 | 42.07733 | 8.38015 | 10449 ft | 295 kts | 128° |
| 2026-05-04 02:35 | 42.06553 | 8.40231 | 9942 ft | 287 kts | 129° |
| 2026-05-04 02:36 | 42.05402 | 8.42381 | 9393 ft | 279 kts | 129° |
| 2026-05-04 02:36 | 42.04275 | 8.44473 | 8876 ft | 274 kts | 129° |
| 2026-05-04 02:36 | 42.03153 | 8.46550 | 8419 ft | 273 kts | 128° |
| 2026-05-04 02:36 | 42.02038 | 8.48612 | 7972 ft | 272 kts | 128° |
| 2026-05-04 02:37 | 42.00920 | 8.50681 | 7496 ft | 274 kts | 128° |
| 2026-05-04 02:37 | 41.99806 | 8.52762 | 7071 ft | 274 kts | 125° |
| 2026-05-04 02:37 | 41.99026 | 8.55104 | 6633 ft | 277 kts | 104° |
| 2026-05-04 02:37 | 41.98920 | 8.57684 | 6187 ft | 280 kts | 83° |
| 2026-05-04 02:38 | 41.99439 | 8.60190 | 5718 ft | 275 kts | 72° |
| 2026-05-04 02:38 | 42.00035 | 8.62577 | 5268 ft | 264 kts | 73° |
| 2026-05-04 02:38 | 42.00582 | 8.64881 | 4761 ft | 250 kts | 79° |
| 2026-05-04 02:38 | 42.00692 | 8.67108 | 4227 ft | 232 kts | 97° |
| 2026-05-04 02:39 | 42.00429 | 8.69190 | 3715 ft | 221 kts | 101° |
| 2026-05-04 02:39 | 42.00167 | 8.71187 | 3184 ft | 213 kts | 101° |
| 2026-05-04 02:39 | 42.00086 | 8.71813 | 3068 ft | 207 kts | 100° |
| 2026-05-04 02:39 | 41.99699 | 8.74806 | 2394 ft | 185 kts | 99° |
| 2026-05-04 02:40 | 41.99488 | 8.76407 | 2240 ft | 166 kts | 99° |
| 2026-05-04 02:40 | 41.99276 | 8.77861 | 2215 ft | 155 kts | 101° |
| 2026-05-04 02:40 | 41.99210 | 8.78319 | 2116 ft | 153 kts | 100° |
| 2026-05-04 02:41 | 41.98664 | 8.81712 | 1423 ft | 146 kts | 121° |
| 2026-05-04 02:41 | 41.97859 | 8.82432 | 1261 ft | 144 kts | 159° |
| 2026-05-04 02:41 | 41.96863 | 8.82705 | 1108 ft | 145 kts | 180° |
| 2026-05-04 02:41 | 41.95877 | 8.82422 | 940 ft | 147 kts | 204° |
| 2026-05-04 02:42 | 41.94940 | 8.81846 | 642 ft | 146 kts | 204° |
| 2026-05-04 02:42 | 41.94024 | 8.81280 | 385 ft | 148 kts | 204° |
| 2026-05-04 02:42 | 41.93092 | 8.80696 | 98 ft | 148 kts | 206° |
| 2026-05-04 02:42 | 41.92225 | 8.80142 | 23 ft | 122 kts | 204° |
| 2026-05-04 02:43 | 41.91732 | 8.79832 | 22 ft | 33 kts | 205° |
| 2026-05-04 02:43 | 41.91500 | 8.79690 | 23 ft | 39 kts | 205° |
| 2026-05-04 02:43 | 41.91323 | 8.79580 | 22 ft | 22 kts | 205° |
| 2026-05-04 02:43 | 41.91252 | 8.79438 | 23 ft | 20 kts | 301° |
| 2026-05-04 02:44 | 41.91367 | 8.79353 | 22 ft | 16 kts | 333° |
| 2026-05-04 02:44 | 41.91479 | 8.79347 | 23 ft | 17 kts | 14° |
| 2026-05-04 02:44 | 41.91576 | 8.79404 | 21 ft | 14 kts | 25° |
| 2026-05-04 02:44 | 41.91670 | 8.79463 | 21 ft | 16 kts | 25° |
| 2026-05-04 02:45 | 41.91729 | 8.79500 | 22 ft | 0 kts | 25° |
| 2026-05-04 02:45 | 41.91754 | 8.79516 | 21 ft | 10 kts | 25° |
| 2026-05-04 02:46 | 41.91848 | 8.79575 | 22 ft | 17 kts | 25° |
| 2026-05-04 02:46 | 41.91902 | 8.79608 | 21 ft | 6 kts | 24° |
| 2026-05-04 02:46 | 41.91934 | 8.79591 | 21 ft | 6 kts | 332° |
| 2026-05-04 02:46 | 41.91959 | 8.79575 | 21 ft | 2 kts | 340° |
| 2026-05-04 02:47 | 41.91966 | 8.79572 | 21 ft | 0 kts | 346° |
| 2026-05-04 02:47 | 41.91968 | 8.79571 | 21 ft | 0 kts | 344° |
| 2026-05-04 02:47 | 41.91971 | 8.79571 | 21 ft | 0 kts | 345° |